createdAt,value
2019-05-02T00:00:50.330Z,11.05
2019-05-02T00:03:41.191Z,10.82
2019-05-02T00:06:31.440Z,11.63
2019-05-02T00:09:21.644Z,11.70
2019-05-02T00:12:15.432Z,12.07
2019-05-02T00:15:08.802Z,11.88
2019-05-02T00:18:01.470Z,11.60
2019-05-02T00:20:49.053Z,11.95
2019-05-02T00:23:38.465Z,11.55
2019-05-02T00:26:27.258Z,12.68
2019-05-02T00:29:18.880Z,11.38
2019-05-02T00:32:08.330Z,12.23
2019-05-02T00:34:57.016Z,12.58
2019-05-02T00:37:46.676Z,11.65
2019-05-02T00:40:36.490Z,13.30
2019-05-02T00:43:28.968Z,13.00
2019-05-02T00:46:16.923Z,12.30
2019-05-02T00:49:06.565Z,13.03
2019-05-02T00:51:56.613Z,13.72
2019-05-02T00:54:46.325Z,13.58
2019-05-02T00:57:35.047Z,12.20
2019-05-02T01:01:09.005Z,12.88
2019-05-02T01:04:01.207Z,13.48
2019-05-02T01:06:50.838Z,13.53
2019-05-02T01:09:42.151Z,13.43
2019-05-02T01:12:31.381Z,13.18
2019-05-02T01:15:21.093Z,12.55
2019-05-02T01:18:10.457Z,13.13
2019-05-02T01:21:02.764Z,13.85
2019-05-02T01:23:50.646Z,14.68
2019-05-02T01:26:44.357Z,14.25
2019-05-02T01:30:05.900Z,13.75
2019-05-02T01:33:06.387Z,13.85
2019-05-02T01:36:06.256Z,13.70
2019-05-02T01:38:55.441Z,12.95
2019-05-02T01:41:45.020Z,14.28
2019-05-02T01:44:36.330Z,13.60
2019-05-02T01:47:24.458Z,13.83
2019-05-02T01:50:13.743Z,13.70
2019-05-02T01:53:03.107Z,13.65
2019-05-02T01:55:57.355Z,15.23
2019-05-02T01:58:43.491Z,14.20
2019-05-02T02:01:35.061Z,15.40
2019-05-02T02:04:24.618Z,14.33
2019-05-02T02:07:14.985Z,14.58
2019-05-02T02:10:04.612Z,13.85
2019-05-02T02:13:03.649Z,13.65
2019-05-02T02:15:44.693Z,14.70
2019-05-02T02:18:38.092Z,13.62
2019-05-02T02:21:33.954Z,16.00
2019-05-02T02:24:27.396Z,14.05
2019-05-02T02:27:19.963Z,15.28
2019-05-02T02:30:09.006Z,14.70
2019-05-02T02:33:04.436Z,14.58
2019-05-02T02:35:51.904Z,15.05
2019-05-02T02:38:40.505Z,15.08
2019-05-02T02:41:29.233Z,14.25
2019-05-02T02:44:40.044Z,14.73
2019-05-02T02:47:26.854Z,14.40
2019-05-02T02:50:16.171Z,15.05
2019-05-02T02:53:05.143Z,14.53
2019-05-02T02:56:00.813Z,14.35
2019-05-02T02:58:47.891Z,15.18
2019-05-02T03:01:36.947Z,15.80
2019-05-02T03:04:29.695Z,16.10
2019-05-02T03:07:26.119Z,15.90
2019-05-02T03:10:09.927Z,14.68
2019-05-02T03:13:21.663Z,14.60
2019-05-02T03:16:11.677Z,14.70
2019-05-02T03:19:01.117Z,16.02
2019-05-02T03:21:54.537Z,15.35
2019-05-02T03:24:46.764Z,15.45
2019-05-02T03:27:37.350Z,15.03
2019-05-02T03:30:37.364Z,15.58
2019-05-02T03:33:16.667Z,15.53
2019-05-02T03:36:25.967Z,15.10
2019-05-02T03:38:56.827Z,15.20
2019-05-02T03:41:46.371Z,15.63
2019-05-02T03:44:35.672Z,16.00
2019-05-02T03:47:24.820Z,15.95
2019-05-02T03:50:14.839Z,14.60
2019-05-02T03:53:05.178Z,15.78
2019-05-02T03:55:54.789Z,16.25
2019-05-02T03:58:48.312Z,15.60
2019-05-02T04:01:41.276Z,16.27
2019-05-02T04:04:26.994Z,14.45
2019-05-02T04:07:18.104Z,14.70
2019-05-02T04:10:13.577Z,14.75
2019-05-02T04:13:04.281Z,15.48
2019-05-02T04:15:53.693Z,16.90
2019-05-02T04:18:54.654Z,15.55
2019-05-02T04:21:34.851Z,15.48
2019-05-02T04:24:24.186Z,16.73
2019-05-02T04:27:13.827Z,14.85
2019-05-02T04:30:11.439Z,15.28
2019-05-02T04:32:55.723Z,16.87
2019-05-02T04:35:46.004Z,16.55
2019-05-02T04:38:46.573Z,15.48
2019-05-02T04:41:30.355Z,15.65
2019-05-02T04:44:18.913Z,15.90
2019-05-02T04:47:14.835Z,15.98
2019-05-02T04:49:59.770Z,15.30
2019-05-02T04:52:53.915Z,16.02
2019-05-02T04:55:40.697Z,16.12
2019-05-02T04:58:34.761Z,15.50
2019-05-02T05:01:21.457Z,15.25
2019-05-02T05:04:11.129Z,16.35
2019-05-02T05:07:01.349Z,15.83
2019-05-02T05:09:57.878Z,16.95
2019-05-02T05:12:42.062Z,16.15
2019-05-02T05:15:38.357Z,15.50
2019-05-02T05:18:21.826Z,16.10
2019-05-02T05:21:10.809Z,15.95
2019-05-02T05:24:18.450Z,16.17
2019-05-02T05:27:08.449Z,16.97
2019-05-02T05:30:05.780Z,17.82
2019-05-02T05:32:50.129Z,16.42
2019-05-02T05:35:43.315Z,15.88
2019-05-02T05:38:33.347Z,17.45
2019-05-02T05:41:23.228Z,16.95
2019-05-02T05:44:12.917Z,18.35
2019-05-02T05:47:02.312Z,16.65
2019-05-02T05:49:52.372Z,19.20
2019-05-02T05:52:42.945Z,18.00
2019-05-02T05:55:32.106Z,18.45
2019-05-02T05:58:21.242Z,19.02
2019-05-02T06:01:10.991Z,18.90
2019-05-02T06:04:01.399Z,19.85
2019-05-02T06:06:54.124Z,19.40
2019-05-02T06:09:41.981Z,20.37
2019-05-02T06:12:35.204Z,18.20
2019-05-02T06:15:21.868Z,19.37
2019-05-02T06:18:11.439Z,19.75
2019-05-02T06:21:03.442Z,20.20
2019-05-02T06:23:51.524Z,19.85
2019-05-02T06:26:40.331Z,19.57
2019-05-02T06:29:29.402Z,21.57
2019-05-02T06:32:19.199Z,21.27
2019-05-02T06:35:08.955Z,22.40
2019-05-02T06:37:58.508Z,22.35
2019-05-02T06:40:47.341Z,22.77
2019-05-02T06:43:36.501Z,24.45
2019-05-02T06:46:27.523Z,24.15
2019-05-02T06:49:16.301Z,22.90
2019-05-02T06:52:05.056Z,25.10
2019-05-02T06:54:57.983Z,24.32
2019-05-02T06:57:45.119Z,24.85
2019-05-02T07:00:38.456Z,25.57
2019-05-02T07:03:27.493Z,25.00
2019-05-02T07:06:16.003Z,31.33
2019-05-02T07:09:07.106Z,30.30
2019-05-02T07:12:01.064Z,28.07
2019-05-02T07:14:48.699Z,28.02
2019-05-02T07:17:43.108Z,28.95
2019-05-02T07:20:35.222Z,27.80
2019-05-02T07:23:24.519Z,29.82
2019-05-02T07:26:15.568Z,29.32
2019-05-02T07:29:05.075Z,29.98
2019-05-02T07:31:54.333Z,29.77
2019-05-02T07:34:44.189Z,27.65
2019-05-02T07:37:34.625Z,30.27
2019-05-02T07:40:24.205Z,31.82
2019-05-02T07:43:21.150Z,30.80
2019-05-02T07:46:06.442Z,31.85
2019-05-02T07:48:56.600Z,29.77
2019-05-02T07:51:46.322Z,31.12
2019-05-02T07:54:35.776Z,29.10
2019-05-02T07:57:30.049Z,29.60
2019-05-02T08:00:15.962Z,30.05
2019-05-02T08:03:06.128Z,30.02
2019-05-02T08:05:58.685Z,29.02
2019-05-02T08:08:46.201Z,30.10
2019-05-02T08:11:37.122Z,31.40
2019-05-02T08:14:29.275Z,30.10
2019-05-02T08:17:19.336Z,31.33
2019-05-02T08:20:08.662Z,30.23
2019-05-02T08:22:58.687Z,31.25
2019-05-02T08:25:47.447Z,33.58
2019-05-02T08:28:51.968Z,33.65
2019-05-02T08:31:43.143Z,30.88
2019-05-02T08:34:33.259Z,31.77
2019-05-02T08:37:22.168Z,32.78
2019-05-02T08:40:12.087Z,34.23
2019-05-02T08:43:03.684Z,32.13
2019-05-02T08:45:53.733Z,34.23
2019-05-02T08:48:43.772Z,33.78
2019-05-02T08:51:33.846Z,34.65
2019-05-02T08:54:22.999Z,34.83
2019-05-02T08:57:12.348Z,31.37
2019-05-02T09:00:01.989Z,33.33
2019-05-02T09:02:51.822Z,32.78
2019-05-02T09:05:45.289Z,33.38
2019-05-02T09:08:31.431Z,34.75
2019-05-02T09:11:21.021Z,33.45
2019-05-02T09:14:12.467Z,32.25
2019-05-02T09:17:08.868Z,32.20
2019-05-02T09:20:01.232Z,34.13
2019-05-02T09:22:52.129Z,34.08
2019-05-02T09:25:37.534Z,39.30
2019-05-02T09:28:27.220Z,37.42
2019-05-02T09:31:16.298Z,38.08
2019-05-02T09:34:06.439Z,35.17
2019-05-02T09:36:55.820Z,36.60
2019-05-02T09:39:44.910Z,36.50
2019-05-02T09:42:33.667Z,36.73
2019-05-02T09:45:27.794Z,37.00
2019-05-02T09:48:24.855Z,37.20
2019-05-02T09:51:12.572Z,36.68
2019-05-02T09:54:02.580Z,36.95
2019-05-02T09:56:52.335Z,38.50
2019-05-02T09:59:43.477Z,35.52
2019-05-02T10:02:32.778Z,36.83
2019-05-02T10:05:23.056Z,37.28
2019-05-02T10:08:13.874Z,36.73
2019-05-02T10:11:03.738Z,36.38
2019-05-02T10:13:55.420Z,36.00
2019-05-02T10:16:43.675Z,35.68
2019-05-02T10:19:33.641Z,35.50
2019-05-02T10:22:32.299Z,34.15
2019-05-02T10:25:25.474Z,35.45
2019-05-02T10:28:15.423Z,34.90
2019-05-02T10:31:04.908Z,35.50
2019-05-02T10:33:54.489Z,34.92
2019-05-02T10:36:45.489Z,37.25
2019-05-02T10:39:37.815Z,37.20
2019-05-02T10:42:25.569Z,38.98
2019-05-02T10:45:16.683Z,41.10
2019-05-02T10:48:07.148Z,38.63
2019-05-02T10:51:15.866Z,36.13
2019-05-02T10:54:07.274Z,35.33
2019-05-02T10:56:56.387Z,35.58
2019-05-02T10:59:45.978Z,34.35
2019-05-02T11:02:58.894Z,33.33
2019-05-02T11:05:52.832Z,31.48
2019-05-02T11:08:45.841Z,29.48
2019-05-02T11:11:33.418Z,29.45
2019-05-02T11:14:42.211Z,29.30
2019-05-02T11:17:36.464Z,28.32
2019-05-02T11:20:25.695Z,27.93
2019-05-02T11:23:15.204Z,27.70
2019-05-02T11:26:05.248Z,26.93
2019-05-02T11:28:54.033Z,26.23
2019-05-02T11:31:43.817Z,25.88
2019-05-02T11:34:33.481Z,26.23
2019-05-02T11:37:23.153Z,26.25
2019-05-02T11:40:12.956Z,24.50
2019-05-02T11:43:06.789Z,23.45
2019-05-02T11:46:01.448Z,26.05
2019-05-02T11:48:55.522Z,24.72
2019-05-02T11:51:42.273Z,22.62
2019-05-02T11:54:34.367Z,23.80
2019-05-02T11:57:28.463Z,22.95
2019-05-02T12:00:14.824Z,22.27
2019-05-02T12:03:12.773Z,22.07
2019-05-02T12:06:02.025Z,22.45
2019-05-02T12:08:52.588Z,22.58
2019-05-02T12:11:42.435Z,22.30
2019-05-02T12:14:36.390Z,21.90
2019-05-02T12:17:24.780Z,21.42
2019-05-02T12:20:15.762Z,20.10
2019-05-02T12:23:09.187Z,20.12
2019-05-02T12:25:59.328Z,19.65
2019-05-02T12:28:48.781Z,20.50
2019-05-02T12:31:39.511Z,18.85
2019-05-02T12:34:29.376Z,18.80
2019-05-02T12:37:19.064Z,17.92
2019-05-02T12:40:08.547Z,16.93
2019-05-02T12:42:57.862Z,17.65
2019-05-02T12:45:47.167Z,16.02
2019-05-02T12:48:36.448Z,16.57
2019-05-02T12:51:26.116Z,16.15
2019-05-02T12:54:15.743Z,16.15
2019-05-02T12:57:04.876Z,15.75
2019-05-02T12:59:54.447Z,16.12
2019-05-02T13:02:57.009Z,15.05
2019-05-02T13:05:47.348Z,13.05
2019-05-02T13:08:48.693Z,13.78
2019-05-02T13:11:52.236Z,13.10
2019-05-02T13:14:42.359Z,12.82
2019-05-02T13:17:35.650Z,12.45
2019-05-02T13:20:25.103Z,12.53
2019-05-02T13:23:27.255Z,13.00
2019-05-02T13:26:21.825Z,13.13
2019-05-02T13:29:06.832Z,12.88
2019-05-02T13:32:18.753Z,12.53
2019-05-02T13:35:27.601Z,14.93
2019-05-02T13:38:22.265Z,14.85
2019-05-02T13:41:12.894Z,14.65
2019-05-02T13:44:02.391Z,15.45
2019-05-02T13:46:53.555Z,15.90
2019-05-02T13:49:53.294Z,15.55
2019-05-02T13:52:33.330Z,16.32
2019-05-02T13:55:26.611Z,15.15
2019-05-02T13:58:21.620Z,16.73
2019-05-02T14:01:06.644Z,15.18
2019-05-02T14:03:55.935Z,15.53
2019-05-02T14:06:45.721Z,15.98
2019-05-02T14:09:58.189Z,15.32
2019-05-02T14:15:41.929Z,14.78
2019-05-02T14:18:31.601Z,16.25
2019-05-02T14:21:23.255Z,16.07
2019-05-02T14:24:13.068Z,17.50
2019-05-02T14:27:02.807Z,16.67
2019-05-02T14:29:53.332Z,17.30
2019-05-02T14:32:42.939Z,17.48
2019-05-02T14:35:36.307Z,18.37
2019-05-02T14:38:25.278Z,17.20
2019-05-02T14:41:19.236Z,14.85
2019-05-02T14:44:09.325Z,13.55
2019-05-02T14:46:58.340Z,12.70
2019-05-02T14:49:49.042Z,12.30
2019-05-02T14:53:43.047Z,11.03
2019-05-02T14:56:47.407Z,10.25
2019-05-02T14:59:33.414Z,9.95
2019-05-02T15:02:45.040Z,8.83
2019-05-02T15:05:33.934Z,8.43
2019-05-02T15:08:23.554Z,7.05
2019-05-02T15:11:12.643Z,6.55
2019-05-02T15:14:03.158Z,6.25
2019-05-02T15:16:56.618Z,5.47
2019-05-02T15:19:43.820Z,5.60
2019-05-02T15:22:37.511Z,5.40
2019-05-02T15:25:24.554Z,5.30
2019-05-02T15:28:19.473Z,5.55
2019-05-02T15:31:13.292Z,4.95
2019-05-02T15:34:11.432Z,4.15
2019-05-02T15:37:00.290Z,3.62
2019-05-02T15:43:55.491Z,2.62
2019-05-02T15:46:45.681Z,2.50
2019-05-02T15:49:46.118Z,3.60
2019-05-02T15:52:37.716Z,2.25
2019-05-02T15:55:27.060Z,2.45
2019-05-02T15:58:25.986Z,2.05
2019-05-02T16:01:32.141Z,2.15
2019-05-02T16:04:25.803Z,1.98
2019-05-02T16:07:17.325Z,2.10
2019-05-02T16:10:08.682Z,2.10
2019-05-02T16:12:59.584Z,1.70
2019-05-02T16:15:49.563Z,1.85
2019-05-02T16:18:41.072Z,1.85
2019-05-02T16:21:38.441Z,1.65
2019-05-02T16:24:27.407Z,1.50
2019-05-02T16:27:21.897Z,1.40
2019-05-02T16:30:11.442Z,1.55
2019-05-02T16:33:02.666Z,1.65
2019-05-02T16:35:56.899Z,1.60
2019-05-02T16:38:48.927Z,1.70
2019-05-02T16:41:45.271Z,2.20
2019-05-02T16:44:32.185Z,1.35
2019-05-02T16:47:30.023Z,1.50
2019-05-02T16:50:27.607Z,2.17
2019-05-02T16:53:26.175Z,1.72
2019-05-02T16:56:17.386Z,1.60
2019-05-02T16:59:07.742Z,1.52
2019-05-02T17:01:59.527Z,1.55
2019-05-02T17:05:12.078Z,1.40
2019-05-02T17:08:18.933Z,1.35
2019-05-02T17:11:22.831Z,1.82
2019-05-02T17:14:29.243Z,1.30
2019-05-02T17:17:19.484Z,1.35
2019-05-02T17:20:16.470Z,1.40
2019-05-02T17:23:07.530Z,1.55
2019-05-02T17:25:56.723Z,1.60
2019-05-02T17:28:47.218Z,1.05
2019-05-02T17:31:37.416Z,1.00
2019-05-02T17:34:30.778Z,1.00
2019-05-02T17:37:21.639Z,1.37
2019-05-02T17:40:12.256Z,1.07
2019-05-02T17:43:06.686Z,1.10
2019-05-02T17:45:57.715Z,1.05
2019-05-02T17:48:47.737Z,1.10
2019-05-02T17:52:05.261Z,1.47
2019-05-02T17:54:47.659Z,1.25
2019-05-02T17:57:37.805Z,1.45
2019-05-02T18:00:29.611Z,1.45
2019-05-02T18:03:24.262Z,1.27
2019-05-02T18:06:17.272Z,1.70
2019-05-02T18:09:09.124Z,1.17
2019-05-02T18:11:58.009Z,1.85
2019-05-02T18:14:51.394Z,1.62
2019-05-02T18:17:42.615Z,1.10
2019-05-02T18:20:32.485Z,1.40
2019-05-02T18:23:24.097Z,1.40
2019-05-02T18:26:14.768Z,1.42
2019-05-02T18:29:06.761Z,1.80
2019-05-02T18:31:55.124Z,1.55
2019-05-02T18:34:44.979Z,1.60
2019-05-02T18:37:37.198Z,1.47
2019-05-02T18:40:29.402Z,1.12
2019-05-02T18:43:16.872Z,1.45
2019-05-02T18:46:07.510Z,1.20
2019-05-02T18:48:56.467Z,1.22
2019-05-02T18:51:48.227Z,1.65
2019-05-02T18:54:43.887Z,1.60
2019-05-02T18:57:30.041Z,1.60
2019-05-02T19:00:19.142Z,1.65
2019-05-02T19:03:13.172Z,1.62
2019-05-02T19:06:02.015Z,1.55
2019-05-02T19:08:52.253Z,1.50
2019-05-02T19:11:42.397Z,1.30
2019-05-02T19:14:32.822Z,1.70
2019-05-02T19:17:25.793Z,1.60
2019-05-02T19:21:06.943Z,1.40
2019-05-02T19:23:57.284Z,1.60
2019-05-02T19:26:49.228Z,1.50
2019-05-02T19:29:38.635Z,1.67
2019-05-02T19:32:28.580Z,1.70
2019-05-02T19:35:17.494Z,1.50
2019-05-02T19:38:06.820Z,1.95
2019-05-02T19:40:58.127Z,1.80
2019-05-02T19:43:50.937Z,1.90
2019-05-02T19:46:42.191Z,1.60
2019-05-02T19:49:32.850Z,1.60
2019-05-02T19:52:23.157Z,1.85
2019-05-02T19:55:20.023Z,1.98
2019-05-02T19:58:06.532Z,1.90
2019-05-02T20:00:55.695Z,1.98
2019-05-02T20:03:45.675Z,1.77
2019-05-02T20:06:34.996Z,1.75
2019-05-02T20:09:27.308Z,1.95
2019-05-02T20:12:16.967Z,2.00
2019-05-02T20:15:06.595Z,1.57
2019-05-02T20:18:00.717Z,1.75
2019-05-02T20:21:12.213Z,2.12
2019-05-02T20:24:02.066Z,1.92
2019-05-02T20:26:56.124Z,1.90
2019-05-02T20:29:48.067Z,1.70
2019-05-02T20:32:37.010Z,1.92
2019-05-02T20:35:27.172Z,1.87
2019-05-02T20:38:19.337Z,1.60
2019-05-02T20:41:09.841Z,2.20
2019-05-02T20:44:02.746Z,2.17
2019-05-02T20:46:52.143Z,1.80
2019-05-02T20:49:42.798Z,2.62
2019-05-02T20:52:32.409Z,1.67
2019-05-02T20:55:23.112Z,1.67
2019-05-02T20:58:12.823Z,2.40
2019-05-02T21:01:08.538Z,2.12
2019-05-02T21:03:54.521Z,1.98
2019-05-02T21:07:02.030Z,1.80
2019-05-02T21:09:55.359Z,1.75
2019-05-02T21:12:46.953Z,2.00
2019-05-02T21:15:36.172Z,2.22
2019-05-02T21:18:26.065Z,2.12
2019-05-02T21:21:39.892Z,2.15
2019-05-02T21:24:32.734Z,1.85
2019-05-02T21:27:26.276Z,1.75
2019-05-02T21:30:24.078Z,2.22
2019-05-02T21:33:34.633Z,2.12
2019-05-02T21:36:31.823Z,2.00
2019-05-02T21:39:24.209Z,2.37
2019-05-02T21:42:15.030Z,2.00
2019-05-02T21:45:09.305Z,2.00
2019-05-02T21:48:03.322Z,1.87
2019-05-02T21:51:02.567Z,1.70
2019-05-02T21:54:32.581Z,2.17
2019-05-02T21:57:22.711Z,1.80
2019-05-02T22:00:17.375Z,1.72
2019-05-02T22:03:09.247Z,2.12
2019-05-02T22:06:01.331Z,1.87
2019-05-02T22:08:52.349Z,2.22
2019-05-02T22:11:43.765Z,2.60
2019-05-02T22:14:36.084Z,1.98
2019-05-02T22:17:25.863Z,1.82
2019-05-02T22:20:16.073Z,2.17
2019-05-02T22:23:06.807Z,2.20
2019-05-02T22:25:58.216Z,2.30
2019-05-02T22:28:48.007Z,1.87
2019-05-02T22:31:37.848Z,2.10
2019-05-02T22:34:27.842Z,1.95
2019-05-02T22:37:18.988Z,2.20
2019-05-02T22:40:10.407Z,2.10
2019-05-02T22:43:01.953Z,2.10
2019-05-02T22:45:51.358Z,1.70
2019-05-02T22:48:42.316Z,2.02
2019-05-02T22:51:32.023Z,1.77
2019-05-02T22:54:27.915Z,1.65
2019-05-02T22:57:14.360Z,2.12
2019-05-02T23:00:06.838Z,1.82
2019-05-02T23:02:56.693Z,1.77
2019-05-02T23:05:46.460Z,1.90
2019-05-02T23:08:37.771Z,1.70
2019-05-02T23:11:27.961Z,2.60
2019-05-02T23:14:19.062Z,1.90
2019-05-02T23:17:08.784Z,2.00
2019-05-02T23:19:57.678Z,2.35
2019-05-02T23:22:48.551Z,2.60
2019-05-02T23:26:12.887Z,2.55
2019-05-02T23:29:03.385Z,2.00
2019-05-02T23:31:52.618Z,2.08
2019-05-02T23:34:42.386Z,2.42
2019-05-02T23:37:32.618Z,2.10
2019-05-02T23:40:22.427Z,2.40
2019-05-02T23:43:12.486Z,2.27
2019-05-02T23:46:02.621Z,2.83
2019-05-02T23:48:52.634Z,2.45
2019-05-02T23:51:42.911Z,2.62
2019-05-02T23:54:32.468Z,2.90
2019-05-02T23:57:23.514Z,2.62
